sensor_id;sensor_type;location;lat;lon;timestamp;P1;durP1;ratioP1;P2;durP2;ratioP2
44452;SDS011;30155;52.164;21.236;2023-04-03T00:00:18;3.00;;;1.60;;
44452;SDS011;30155;52.164;21.236;2023-04-03T00:05:11;2.80;;;1.40;;
44452;SDS011;30155;52.164;21.236;2023-04-03T00:10:04;1.10;;;0.80;;
44452;SDS011;30155;52.164;21.236;2023-04-03T00:14:58;1.20;;;1.10;;
44452;SDS011;30155;52.164;21.236;2023-04-03T00:19:51;2.40;;;1.30;;
44452;SDS011;30155;52.164;21.236;2023-04-03T00:24:43;3.00;;;1.50;;
44452;SDS011;30155;52.164;21.236;2023-04-03T00:29:37;2.50;;;1.30;;
44452;SDS011;30155;52.164;21.236;2023-04-03T00:34:30;3.40;;;1.50;;
44452;SDS011;30155;52.164;21.236;2023-04-03T00:39:23;3.30;;;1.40;;
44452;SDS011;30155;52.164;21.236;2023-04-03T00:49:21;3.60;;;1.90;;
44452;SDS011;30155;52.164;21.236;2023-04-03T00:54:14;3.70;;;1.60;;
44452;SDS011;30155;52.164;21.236;2023-04-03T00:59:10;3.90;;;1.50;;
44452;SDS011;30155;52.164;21.236;2023-04-03T01:04:28;2.10;;;1.30;;
44452;SDS011;30155;52.164;21.236;2023-04-03T01:09:24;1.70;;;1.30;;
44452;SDS011;30155;52.164;21.236;2023-04-03T01:14:18;3.60;;;1.30;;
44452;SDS011;30155;52.164;21.236;2023-04-03T01:19:12;2.80;;;1.20;;
44452;SDS011;30155;52.164;21.236;2023-04-03T01:29:08;4.60;;;1.60;;
44452;SDS011;30155;52.164;21.236;2023-04-03T01:34:01;1.60;;;1.00;;
44452;SDS011;30155;52.164;21.236;2023-04-03T01:38:56;1.60;;;1.20;;
44452;SDS011;30155;52.164;21.236;2023-04-03T01:43:51;2.80;;;1.10;;
44452;SDS011;30155;52.164;21.236;2023-04-03T01:48:44;2.60;;;1.50;;
44452;SDS011;30155;52.164;21.236;2023-04-03T01:53:37;1.70;;;1.20;;
44452;SDS011;30155;52.164;21.236;2023-04-03T01:58:31;2.10;;;1.20;;
44452;SDS011;30155;52.164;21.236;2023-04-03T02:03:24;2.10;;;1.00;;
44452;SDS011;30155;52.164;21.236;2023-04-03T02:08:17;2.50;;;1.30;;
44452;SDS011;30155;52.164;21.236;2023-04-03T02:13:10;4.30;;;1.30;;
44452;SDS011;30155;52.164;21.236;2023-04-03T02:18:04;2.00;;;1.10;;
44452;SDS011;30155;52.164;21.236;2023-04-03T02:22:58;2.70;;;1.10;;
44452;SDS011;30155;52.164;21.236;2023-04-03T02:27:51;1.60;;;1.10;;
44452;SDS011;30155;52.164;21.236;2023-04-03T02:32:44;4.40;;;0.80;;
44452;SDS011;30155;52.164;21.236;2023-04-03T02:37:37;4.10;;;1.10;;
44452;SDS011;30155;52.164;21.236;2023-04-03T02:42:31;1.60;;;1.50;;
44452;SDS011;30155;52.164;21.236;2023-04-03T02:47:27;5.50;;;1.40;;
44452;SDS011;30155;52.164;21.236;2023-04-03T02:52:20;2.50;;;1.60;;
44452;SDS011;30155;52.164;21.236;2023-04-03T02:57:14;2.20;;;1.40;;
44452;SDS011;30155;52.164;21.236;2023-04-03T03:02:07;3.10;;;1.30;;
44452;SDS011;30155;52.164;21.236;2023-04-03T03:07:01;1.80;;;1.10;;
44452;SDS011;30155;52.164;21.236;2023-04-03T03:11:54;3.20;;;1.10;;
44452;SDS011;30155;52.164;21.236;2023-04-03T03:16:48;1.70;;;1.50;;
44452;SDS011;30155;52.164;21.236;2023-04-03T03:21:42;3.40;;;1.10;;
44452;SDS011;30155;52.164;21.236;2023-04-03T03:26:35;1.70;;;0.80;;
44452;SDS011;30155;52.164;21.236;2023-04-03T03:31:28;1.00;;;0.80;;
44452;SDS011;30155;52.164;21.236;2023-04-03T03:36:21;3.40;;;0.80;;
44452;SDS011;30155;52.164;21.236;2023-04-03T03:41:14;1.50;;;0.80;;
44452;SDS011;30155;52.164;21.236;2023-04-03T03:46:07;2.80;;;1.00;;
44452;SDS011;30155;52.164;21.236;2023-04-03T03:51:00;1.50;;;1.40;;
44452;SDS011;30155;52.164;21.236;2023-04-03T03:55:57;2.10;;;0.80;;
44452;SDS011;30155;52.164;21.236;2023-04-03T04:00:51;2.40;;;1.10;;
44452;SDS011;30155;52.164;21.236;2023-04-03T04:05:47;3.30;;;1.40;;
44452;SDS011;30155;52.164;21.236;2023-04-03T04:10:40;5.00;;;1.10;;
44452;SDS011;30155;52.164;21.236;2023-04-03T04:15:35;1.50;;;1.00;;
44452;SDS011;30155;52.164;21.236;2023-04-03T04:20:29;2.10;;;1.10;;
44452;SDS011;30155;52.164;21.236;2023-04-03T04:25:23;1.20;;;0.90;;
44452;SDS011;30155;52.164;21.236;2023-04-03T04:30:16;2.40;;;1.00;;
44452;SDS011;30155;52.164;21.236;2023-04-03T04:35:11;1.60;;;0.90;;
44452;SDS011;30155;52.164;21.236;2023-04-03T04:40:08;3.10;;;1.10;;
44452;SDS011;30155;52.164;21.236;2023-04-03T04:45:03;2.40;;;1.10;;
44452;SDS011;30155;52.164;21.236;2023-04-03T04:49:57;2.40;;;1.30;;
44452;SDS011;30155;52.164;21.236;2023-04-03T04:54:51;2.90;;;1.10;;
44452;SDS011;30155;52.164;21.236;2023-04-03T04:59:44;2.60;;;1.60;;
44452;SDS011;30155;52.164;21.236;2023-04-03T05:04:38;3.00;;;1.60;;
44452;SDS011;30155;52.164;21.236;2023-04-03T05:09:35;3.50;;;2.30;;
44452;SDS011;30155;52.164;21.236;2023-04-03T05:14:29;25.90;;;15.60;;
44452;SDS011;30155;52.164;21.236;2023-04-03T05:19:25;14.10;;;6.90;;
44452;SDS011;30155;52.164;21.236;2023-04-03T05:24:19;5.20;;;3.40;;
44452;SDS011;30155;52.164;21.236;2023-04-03T05:29:17;4.70;;;2.40;;
44452;SDS011;30155;52.164;21.236;2023-04-03T05:34:10;3.20;;;2.00;;
44452;SDS011;30155;52.164;21.236;2023-04-03T05:39:03;8.60;;;6.70;;
44452;SDS011;30155;52.164;21.236;2023-04-03T05:43:59;5.80;;;2.90;;
44452;SDS011;30155;52.164;21.236;2023-04-03T05:48:53;18.40;;;13.40;;
44452;SDS011;30155;52.164;21.236;2023-04-03T05:53:47;6.30;;;4.70;;
44452;SDS011;30155;52.164;21.236;2023-04-03T05:58:40;3.30;;;2.20;;
44452;SDS011;30155;52.164;21.236;2023-04-03T06:03:33;2.80;;;1.90;;
44452;SDS011;30155;52.164;21.236;2023-04-03T06:08:30;2.40;;;1.40;;
44452;SDS011;30155;52.164;21.236;2023-04-03T06:13:24;3.20;;;1.70;;
44452;SDS011;30155;52.164;21.236;2023-04-03T06:18:16;5.90;;;2.80;;
44452;SDS011;30155;52.164;21.236;2023-04-03T06:23:09;6.40;;;3.20;;
44452;SDS011;30155;52.164;21.236;2023-04-03T06:28:07;5.10;;;3.00;;
44452;SDS011;30155;52.164;21.236;2023-04-03T06:33:01;4.40;;;2.10;;
44452;SDS011;30155;52.164;21.236;2023-04-03T06:37:54;11.80;;;5.40;;
44452;SDS011;30155;52.164;21.236;2023-04-03T06:42:47;4.70;;;2.00;;
44452;SDS011;30155;52.164;21.236;2023-04-03T06:47:41;3.20;;;2.30;;
44452;SDS011;30155;52.164;21.236;2023-04-03T06:52:35;6.50;;;4.80;;
44452;SDS011;30155;52.164;21.236;2023-04-03T06:57:28;5.40;;;2.10;;
44452;SDS011;30155;52.164;21.236;2023-04-03T07:02:20;5.30;;;2.60;;
44452;SDS011;30155;52.164;21.236;2023-04-03T07:07:13;8.40;;;3.30;;
44452;SDS011;30155;52.164;21.236;2023-04-03T07:12:06;8.50;;;4.10;;
44452;SDS011;30155;52.164;21.236;2023-04-03T07:16:59;7.80;;;3.10;;
44452;SDS011;30155;52.164;21.236;2023-04-03T07:21:52;6.40;;;2.70;;
44452;SDS011;30155;52.164;21.236;2023-04-03T07:26:48;6.80;;;2.60;;
44452;SDS011;30155;52.164;21.236;2023-04-03T07:31:42;4.90;;;2.90;;
44452;SDS011;30155;52.164;21.236;2023-04-03T07:36:36;6.80;;;4.50;;
44452;SDS011;30155;52.164;21.236;2023-04-03T07:41:29;7.70;;;5.10;;
44452;SDS011;30155;52.164;21.236;2023-04-03T07:46:22;4.20;;;2.50;;
44452;SDS011;30155;52.164;21.236;2023-04-03T07:51:15;2.10;;;1.50;;
44452;SDS011;30155;52.164;21.236;2023-04-03T07:56:08;2.30;;;1.80;;
44452;SDS011;30155;52.164;21.236;2023-04-03T08:01:02;3.60;;;2.00;;
44452;SDS011;30155;52.164;21.236;2023-04-03T08:05:55;4.90;;;2.60;;
44452;SDS011;30155;52.164;21.236;2023-04-03T08:10:57;4.60;;;2.20;;
44452;SDS011;30155;52.164;21.236;2023-04-03T08:15:51;4.30;;;2.00;;
44452;SDS011;30155;52.164;21.236;2023-04-03T08:20:45;3.50;;;2.00;;
44452;SDS011;30155;52.164;21.236;2023-04-03T08:25:39;3.00;;;2.40;;
44452;SDS011;30155;52.164;21.236;2023-04-03T08:30:33;1.60;;;1.30;;
44452;SDS011;30155;52.164;21.236;2023-04-03T08:35:26;3.30;;;2.50;;
44452;SDS011;30155;52.164;21.236;2023-04-03T08:40:19;1.50;;;1.40;;
44452;SDS011;30155;52.164;21.236;2023-04-03T08:50:16;2.10;;;1.50;;
44452;SDS011;30155;52.164;21.236;2023-04-03T08:55:29;1.30;;;1.20;;
44452;SDS011;30155;52.164;21.236;2023-04-03T09:00:27;1.40;;;1.10;;
44452;SDS011;30155;52.164;21.236;2023-04-03T09:10:40;2.10;;;1.40;;
44452;SDS011;30155;52.164;21.236;2023-04-03T09:15:34;1.40;;;1.20;;
44452;SDS011;30155;52.164;21.236;2023-04-03T09:20:33;1.50;;;1.30;;
44452;SDS011;30155;52.164;21.236;2023-04-03T09:25:33;1.30;;;1.20;;
44452;SDS011;30155;52.164;21.236;2023-04-03T09:30:30;1.50;;;1.20;;
44452;SDS011;30155;52.164;21.236;2023-04-03T09:35:24;1.50;;;1.20;;
44452;SDS011;30155;52.164;21.236;2023-04-03T09:41:18;2.60;;;1.60;;
44452;SDS011;30155;52.164;21.236;2023-04-03T09:45:54;2.10;;;1.80;;
44452;SDS011;30155;52.164;21.236;2023-04-03T09:55:53;2.10;;;1.50;;
44452;SDS011;30155;52.164;21.236;2023-04-03T10:00:45;1.70;;;1.20;;
44452;SDS011;30155;52.164;21.236;2023-04-03T10:05:47;3.00;;;1.60;;
44452;SDS011;30155;52.164;21.236;2023-04-03T10:10:43;4.20;;;1.80;;
44452;SDS011;30155;52.164;21.236;2023-04-03T10:15:42;1.50;;;1.40;;
44452;SDS011;30155;52.164;21.236;2023-04-03T10:21:02;1.80;;;1.60;;
44452;SDS011;30155;52.164;21.236;2023-04-03T10:47:10;1.70;;;1.50;;
44452;SDS011;30155;52.164;21.236;2023-04-03T10:57:25;1.50;;;1.40;;
44452;SDS011;30155;52.164;21.236;2023-04-03T11:02:37;1.80;;;1.30;;
44452;SDS011;30155;52.164;21.236;2023-04-03T11:07:43;1.80;;;1.10;;
44452;SDS011;30155;52.164;21.236;2023-04-03T11:12:46;4.70;;;1.30;;
44452;SDS011;30155;52.164;21.236;2023-04-03T11:17:48;1.10;;;1.00;;
44452;SDS011;30155;52.164;21.236;2023-04-03T11:22:48;1.20;;;1.10;;
44452;SDS011;30155;52.164;21.236;2023-04-03T11:27:48;1.80;;;1.20;;
44452;SDS011;30155;52.164;21.236;2023-04-03T11:37:46;1.30;;;1.10;;
44452;SDS011;30155;52.164;21.236;2023-04-03T11:42:49;3.30;;;1.20;;
44452;SDS011;30155;52.164;21.236;2023-04-03T11:47:48;1.90;;;1.20;;
44452;SDS011;30155;52.164;21.236;2023-04-03T11:57:45;2.10;;;1.30;;
44452;SDS011;30155;52.164;21.236;2023-04-03T12:02:39;1.30;;;1.10;;
44452;SDS011;30155;52.164;21.236;2023-04-03T12:07:44;1.30;;;1.00;;
44452;SDS011;30155;52.164;21.236;2023-04-03T12:13:16;2.10;;;1.60;;
44452;SDS011;30155;52.164;21.236;2023-04-03T12:23:34;1.60;;;0.90;;
44452;SDS011;30155;52.164;21.236;2023-04-03T12:28:34;2.60;;;1.50;;
44452;SDS011;30155;52.164;21.236;2023-04-03T12:34:17;2.30;;;1.20;;
44452;SDS011;30155;52.164;21.236;2023-04-03T12:39:10;2.80;;;1.60;;
44452;SDS011;30155;52.164;21.236;2023-04-03T12:49:41;4.00;;;1.50;;
44452;SDS011;30155;52.164;21.236;2023-04-03T12:54:37;2.00;;;1.20;;
44452;SDS011;30155;52.164;21.236;2023-04-03T12:59:32;2.30;;;1.30;;
44452;SDS011;30155;52.164;21.236;2023-04-03T13:04:26;1.40;;;0.90;;
44452;SDS011;30155;52.164;21.236;2023-04-03T13:14:22;4.20;;;1.30;;
44452;SDS011;30155;52.164;21.236;2023-04-03T13:19:17;1.40;;;1.00;;
44452;SDS011;30155;52.164;21.236;2023-04-03T13:24:10;0.90;;;0.80;;
44452;SDS011;30155;52.164;21.236;2023-04-03T13:29:07;1.50;;;1.30;;
44452;SDS011;30155;52.164;21.236;2023-04-03T13:34:18;2.00;;;1.20;;
44452;SDS011;30155;52.164;21.236;2023-04-03T13:44:25;1.50;;;1.00;;
44452;SDS011;30155;52.164;21.236;2023-04-03T13:49:21;2.20;;;1.50;;
44452;SDS011;30155;52.164;21.236;2023-04-03T13:54:33;3.50;;;1.40;;
44452;SDS011;30155;52.164;21.236;2023-04-03T13:59:30;3.10;;;1.60;;
44452;SDS011;30155;52.164;21.236;2023-04-03T14:04:26;2.10;;;1.30;;
44452;SDS011;30155;52.164;21.236;2023-04-03T14:09:26;1.20;;;1.00;;
44452;SDS011;30155;52.164;21.236;2023-04-03T14:14:24;2.40;;;1.80;;
44452;SDS011;30155;52.164;21.236;2023-04-03T14:29:13;1.50;;;1.30;;
44452;SDS011;30155;52.164;21.236;2023-04-03T14:34:06;1.30;;;1.20;;
44452;SDS011;30155;52.164;21.236;2023-04-03T14:39:00;3.10;;;2.20;;
44452;SDS011;30155;52.164;21.236;2023-04-03T14:43:53;13.30;;;7.60;;
44452;SDS011;30155;52.164;21.236;2023-04-03T14:48:47;5.30;;;2.90;;
44452;SDS011;30155;52.164;21.236;2023-04-03T14:53:41;5.90;;;2.60;;
44452;SDS011;30155;52.164;21.236;2023-04-03T14:58:36;1.80;;;1.40;;
44452;SDS011;30155;52.164;21.236;2023-04-03T15:03:29;3.10;;;1.80;;
44452;SDS011;30155;52.164;21.236;2023-04-03T15:08:23;3.40;;;2.10;;
44452;SDS011;30155;52.164;21.236;2023-04-03T15:13:20;4.10;;;2.30;;
44452;SDS011;30155;52.164;21.236;2023-04-03T15:18:18;3.40;;;1.90;;
44452;SDS011;30155;52.164;21.236;2023-04-03T15:23:13;13.00;;;9.40;;
44452;SDS011;30155;52.164;21.236;2023-04-03T15:28:08;29.00;;;24.80;;
44452;SDS011;30155;52.164;21.236;2023-04-03T15:33:06;7.00;;;4.40;;
44452;SDS011;30155;52.164;21.236;2023-04-03T15:37:59;3.90;;;1.80;;
44452;SDS011;30155;52.164;21.236;2023-04-03T15:42:52;18.50;;;11.90;;
44452;SDS011;30155;52.164;21.236;2023-04-03T15:47:45;4.70;;;2.50;;
44452;SDS011;30155;52.164;21.236;2023-04-03T15:52:38;13.40;;;6.00;;
44452;SDS011;30155;52.164;21.236;2023-04-03T15:57:31;3.60;;;2.70;;
44452;SDS011;30155;52.164;21.236;2023-04-03T16:02:29;3.90;;;2.00;;
44452;SDS011;30155;52.164;21.236;2023-04-03T16:07:21;14.30;;;8.40;;
44452;SDS011;30155;52.164;21.236;2023-04-03T16:12:14;5.50;;;2.90;;
44452;SDS011;30155;52.164;21.236;2023-04-03T16:17:07;4.20;;;2.50;;
44452;SDS011;30155;52.164;21.236;2023-04-03T16:22:00;4.40;;;2.20;;
44452;SDS011;30155;52.164;21.236;2023-04-03T16:26:54;7.60;;;4.20;;
44452;SDS011;30155;52.164;21.236;2023-04-03T16:31:47;3.30;;;1.80;;
44452;SDS011;30155;52.164;21.236;2023-04-03T16:36:40;2.60;;;2.40;;
44452;SDS011;30155;52.164;21.236;2023-04-03T16:41:33;2.60;;;1.80;;
44452;SDS011;30155;52.164;21.236;2023-04-03T16:46:25;5.10;;;3.40;;
44452;SDS011;30155;52.164;21.236;2023-04-03T16:51:18;6.10;;;4.30;;
44452;SDS011;30155;52.164;21.236;2023-04-03T16:56:11;3.70;;;1.90;;
44452;SDS011;30155;52.164;21.236;2023-04-03T17:01:11;7.80;;;3.30;;
44452;SDS011;30155;52.164;21.236;2023-04-03T17:06:09;17.90;;;11.30;;
44452;SDS011;30155;52.164;21.236;2023-04-03T17:11:07;9.90;;;9.00;;
44452;SDS011;30155;52.164;21.236;2023-04-03T17:16:00;9.00;;;6.70;;
44452;SDS011;30155;52.164;21.236;2023-04-03T17:20:58;18.60;;;13.20;;
44452;SDS011;30155;52.164;21.236;2023-04-03T17:25:51;19.30;;;13.80;;
44452;SDS011;30155;52.164;21.236;2023-04-03T17:30:45;11.50;;;8.00;;
44452;SDS011;30155;52.164;21.236;2023-04-03T17:35:38;10.10;;;7.00;;
44452;SDS011;30155;52.164;21.236;2023-04-03T17:40:31;11.20;;;5.80;;
44452;SDS011;30155;52.164;21.236;2023-04-03T17:45:25;23.70;;;10.90;;
44452;SDS011;30155;52.164;21.236;2023-04-03T17:50:19;6.60;;;4.50;;
44452;SDS011;30155;52.164;21.236;2023-04-03T17:55:12;8.60;;;6.00;;
44452;SDS011;30155;52.164;21.236;2023-04-03T18:00:08;20.50;;;10.70;;
44452;SDS011;30155;52.164;21.236;2023-04-03T18:05:04;8.10;;;4.50;;
44452;SDS011;30155;52.164;21.236;2023-04-03T18:09:59;5.50;;;3.30;;
44452;SDS011;30155;52.164;21.236;2023-04-03T18:14:55;17.50;;;10.20;;
44452;SDS011;30155;52.164;21.236;2023-04-03T18:19:49;13.90;;;10.10;;
44452;SDS011;30155;52.164;21.236;2023-04-03T18:24:42;11.40;;;6.70;;
44452;SDS011;30155;52.164;21.236;2023-04-03T18:29:36;20.90;;;11.70;;
44452;SDS011;30155;52.164;21.236;2023-04-03T18:34:32;21.20;;;12.00;;
44452;SDS011;30155;52.164;21.236;2023-04-03T18:39:25;17.30;;;11.00;;
44452;SDS011;30155;52.164;21.236;2023-04-03T18:44:19;13.90;;;10.20;;
44452;SDS011;30155;52.164;21.236;2023-04-03T18:49:15;8.00;;;4.50;;
44452;SDS011;30155;52.164;21.236;2023-04-03T18:54:08;6.60;;;4.60;;
44452;SDS011;30155;52.164;21.236;2023-04-03T18:59:01;9.20;;;6.50;;
44452;SDS011;30155;52.164;21.236;2023-04-03T19:03:54;7.10;;;5.10;;
44452;SDS011;30155;52.164;21.236;2023-04-03T19:08:48;10.00;;;6.90;;
44452;SDS011;30155;52.164;21.236;2023-04-03T19:13:42;6.00;;;4.20;;
44452;SDS011;30155;52.164;21.236;2023-04-03T19:18:54;6.40;;;5.10;;
44452;SDS011;30155;52.164;21.236;2023-04-03T19:23:46;7.80;;;6.30;;
44452;SDS011;30155;52.164;21.236;2023-04-03T19:28:39;10.20;;;6.20;;
44452;SDS011;30155;52.164;21.236;2023-04-03T19:33:34;11.30;;;7.30;;
44452;SDS011;30155;52.164;21.236;2023-04-03T19:38:27;10.40;;;5.70;;
44452;SDS011;30155;52.164;21.236;2023-04-03T19:43:21;9.70;;;6.20;;
44452;SDS011;30155;52.164;21.236;2023-04-03T19:48:14;17.60;;;10.40;;
44452;SDS011;30155;52.164;21.236;2023-04-03T19:53:07;10.60;;;5.50;;
44452;SDS011;30155;52.164;21.236;2023-04-03T19:58:05;10.90;;;6.20;;
44452;SDS011;30155;52.164;21.236;2023-04-03T20:02:58;14.00;;;10.60;;
44452;SDS011;30155;52.164;21.236;2023-04-03T20:07:52;13.60;;;9.40;;
44452;SDS011;30155;52.164;21.236;2023-04-03T20:12:47;19.10;;;11.00;;
44452;SDS011;30155;52.164;21.236;2023-04-03T20:17:42;15.10;;;7.50;;
44452;SDS011;30155;52.164;21.236;2023-04-03T20:22:36;14.30;;;8.90;;
44452;SDS011;30155;52.164;21.236;2023-04-03T20:27:30;14.10;;;7.40;;
44452;SDS011;30155;52.164;21.236;2023-04-03T20:32:23;13.80;;;6.70;;
44452;SDS011;30155;52.164;21.236;2023-04-03T20:37:18;10.90;;;5.90;;
44452;SDS011;30155;52.164;21.236;2023-04-03T20:42:13;8.30;;;5.20;;
44452;SDS011;30155;52.164;21.236;2023-04-03T20:47:06;8.40;;;4.60;;
44452;SDS011;30155;52.164;21.236;2023-04-03T20:52:00;17.20;;;8.80;;
44452;SDS011;30155;52.164;21.236;2023-04-03T20:56:54;7.80;;;5.40;;
44452;SDS011;30155;52.164;21.236;2023-04-03T21:01:47;7.30;;;4.70;;
44452;SDS011;30155;52.164;21.236;2023-04-03T21:22:54;6.40;;;4.50;;
44452;SDS011;30155;52.164;21.236;2023-04-03T21:27:47;6.90;;;4.80;;
44452;SDS011;30155;52.164;21.236;2023-04-03T21:32:40;14.10;;;7.90;;
44452;SDS011;30155;52.164;21.236;2023-04-03T21:37:32;7.10;;;3.60;;
44452;SDS011;30155;52.164;21.236;2023-04-03T21:42:25;5.40;;;4.00;;
44452;SDS011;30155;52.164;21.236;2023-04-03T21:47:18;12.80;;;6.40;;
44452;SDS011;30155;52.164;21.236;2023-04-03T21:52:11;8.90;;;5.10;;
44452;SDS011;30155;52.164;21.236;2023-04-03T21:57:05;12.60;;;7.50;;
44452;SDS011;30155;52.164;21.236;2023-04-03T22:02:02;8.70;;;4.30;;
44452;SDS011;30155;52.164;21.236;2023-04-03T22:06:55;8.80;;;5.00;;
44452;SDS011;30155;52.164;21.236;2023-04-03T22:11:49;6.30;;;4.20;;
44452;SDS011;30155;52.164;21.236;2023-04-03T22:16:42;8.40;;;5.20;;
44452;SDS011;30155;52.164;21.236;2023-04-03T22:21:37;8.90;;;5.60;;
44452;SDS011;30155;52.164;21.236;2023-04-03T22:26:29;5.30;;;4.10;;
44452;SDS011;30155;52.164;21.236;2023-04-03T22:31:23;7.00;;;4.60;;
44452;SDS011;30155;52.164;21.236;2023-04-03T22:36:17;9.60;;;4.10;;
44452;SDS011;30155;52.164;21.236;2023-04-03T22:41:10;6.20;;;3.00;;
44452;SDS011;30155;52.164;21.236;2023-04-03T22:46:04;7.10;;;4.20;;
44452;SDS011;30155;52.164;21.236;2023-04-03T22:51:05;5.30;;;3.30;;
44452;SDS011;30155;52.164;21.236;2023-04-03T22:55:59;6.70;;;4.30;;
44452;SDS011;30155;52.164;21.236;2023-04-03T23:00:54;6.30;;;3.20;;
44452;SDS011;30155;52.164;21.236;2023-04-03T23:05:48;6.30;;;4.20;;
44452;SDS011;30155;52.164;21.236;2023-04-03T23:10:43;6.70;;;4.50;;
44452;SDS011;30155;52.164;21.236;2023-04-03T23:15:36;5.40;;;3.70;;
44452;SDS011;30155;52.164;21.236;2023-04-03T23:20:31;5.80;;;3.50;;
44452;SDS011;30155;52.164;21.236;2023-04-03T23:25:24;7.20;;;4.00;;
44452;SDS011;30155;52.164;21.236;2023-04-03T23:30:17;4.80;;;3.30;;
44452;SDS011;30155;52.164;21.236;2023-04-03T23:35:11;8.40;;;4.20;;
44452;SDS011;30155;52.164;21.236;2023-04-03T23:40:05;5.90;;;4.40;;
44452;SDS011;30155;52.164;21.236;2023-04-03T23:44:58;4.60;;;2.90;;
44452;SDS011;30155;52.164;21.236;2023-04-03T23:49:51;6.50;;;3.70;;
44452;SDS011;30155;52.164;21.236;2023-04-03T23:54:44;4.90;;;3.30;;
44452;SDS011;30155;52.164;21.236;2023-04-03T23:59:37;4.20;;;2.60;;
